createdAt,value
2018-05-26T00:01:45.867Z,6.13
2018-05-26T00:04:14.548Z,6.60
2018-05-26T00:06:43.226Z,6.00
2018-05-26T00:09:11.939Z,5.62
2018-05-26T00:11:41.031Z,5.80
2018-05-26T00:14:09.664Z,5.97
2018-05-26T00:16:38.331Z,6.53
2018-05-26T00:19:06.966Z,6.03
2018-05-26T00:21:35.610Z,5.67
2018-05-26T00:24:04.575Z,5.53
2018-05-26T00:26:33.219Z,6.17
2018-05-26T00:29:02.825Z,5.87
2018-05-26T00:31:32.495Z,5.00
2018-05-26T00:34:01.172Z,5.67
2018-05-26T00:36:29.825Z,7.00
2018-05-26T00:38:59.420Z,7.68
2018-05-26T00:41:28.074Z,6.90
2018-05-26T00:43:56.742Z,7.40
2018-05-26T00:46:25.516Z,7.50
2018-05-26T00:48:54.183Z,7.20
2018-05-26T00:51:22.899Z,7.60
2018-05-26T00:53:51.510Z,6.60
2018-05-26T00:56:20.167Z,7.40
2018-05-26T00:58:49.155Z,6.90
2018-05-26T01:01:17.888Z,6.37
2018-05-26T01:03:46.868Z,7.20
2018-05-26T01:06:16.705Z,7.03
2018-05-26T01:08:45.353Z,6.07
2018-05-26T01:11:14.014Z,7.80
2018-05-26T01:13:43.877Z,7.85
2018-05-26T01:16:13.997Z,7.87
2018-05-26T01:18:42.669Z,7.33
2018-05-26T01:21:11.379Z,7.07
2018-05-26T01:23:40.039Z,7.20
2018-05-26T01:26:08.663Z,7.50
2018-05-26T01:28:38.268Z,7.33
2018-05-26T01:31:09.307Z,7.37
2018-05-26T01:33:39.285Z,7.90
2018-05-26T01:36:07.932Z,8.25
2018-05-26T01:38:36.620Z,6.90
2018-05-26T01:41:05.259Z,7.67
2018-05-26T01:43:33.949Z,6.63
2018-05-26T01:46:02.868Z,7.03
2018-05-26T01:48:31.556Z,8.23
2018-05-26T01:51:00.319Z,7.30
2018-05-26T01:53:28.981Z,7.37
2018-05-26T01:55:57.644Z,7.33
2018-05-26T01:58:26.315Z,7.30
2018-05-26T02:00:56.727Z,7.50
2018-05-26T02:03:25.396Z,7.43
2018-05-26T02:05:54.119Z,7.57
2018-05-26T02:08:22.817Z,7.37
2018-05-26T02:10:51.928Z,7.50
2018-05-26T02:13:24.831Z,7.50
2018-05-26T02:15:55.428Z,7.97
2018-05-26T02:18:26.495Z,7.70
2018-05-26T02:20:55.421Z,7.73
2018-05-26T02:23:24.171Z,7.73
2018-05-26T02:26:02.347Z,7.03
2018-05-26T02:28:31.054Z,7.63
2018-05-26T02:30:59.666Z,6.83
2018-05-26T02:33:32.881Z,6.77
2018-05-26T02:36:01.569Z,7.00
2018-05-26T02:38:33.145Z,7.00
2018-05-26T02:41:02.098Z,7.23
2018-05-26T02:43:30.745Z,8.10
2018-05-26T02:45:59.398Z,7.50
2018-05-26T02:48:28.264Z,7.23
2018-05-26T02:50:56.884Z,7.43
2018-05-26T02:53:25.586Z,7.00
2018-05-26T02:55:54.202Z,7.60
2018-05-26T02:58:22.862Z,7.33
2018-05-26T03:00:51.539Z,7.63
2018-05-26T03:03:20.186Z,8.17
2018-05-26T03:06:06.884Z,7.90
2018-05-26T03:08:53.875Z,7.67
2018-05-26T03:11:43.100Z,6.10
2018-05-26T03:14:29.857Z,6.50
2018-05-26T03:16:58.518Z,6.50
2018-05-26T03:19:28.130Z,7.87
2018-05-26T03:21:56.754Z,7.20
2018-05-26T03:24:25.517Z,8.50
2018-05-26T03:26:54.119Z,7.77
2018-05-26T03:29:22.820Z,7.73
2018-05-26T03:31:51.476Z,7.90
2018-05-26T03:34:20.552Z,6.93
2018-05-26T03:36:49.173Z,7.93
2018-05-26T03:39:17.826Z,7.77
2018-05-26T03:41:46.589Z,6.70
2018-05-26T03:44:15.299Z,8.13
2018-05-26T03:46:45.899Z,7.80
2018-05-26T03:49:14.597Z,7.20
2018-05-26T03:51:43.256Z,7.10
2018-05-26T03:54:11.928Z,6.60
2018-05-26T03:57:17.759Z,6.60
2018-05-26T04:00:11.259Z,6.87
2018-05-26T04:02:41.732Z,7.67
2018-05-26T04:05:10.391Z,7.83
2018-05-26T04:10:26.655Z,8.00
2018-05-26T04:12:57.347Z,9.93
2018-05-26T04:15:38.600Z,7.90
2018-05-26T04:18:07.205Z,8.80
2018-05-26T04:20:35.874Z,8.80
2018-05-26T04:23:12.920Z,9.50
2018-05-26T04:25:41.599Z,8.40
2018-05-26T04:28:10.413Z,9.00
2018-05-26T04:30:40.041Z,9.50
2018-05-26T04:35:56.276Z,9.27
2018-05-26T04:38:24.940Z,8.67
2018-05-26T04:40:55.159Z,8.10
2018-05-26T04:43:23.813Z,8.27
2018-05-26T04:45:52.474Z,8.77
2018-05-26T04:48:21.100Z,8.17
2018-05-26T04:50:50.748Z,8.83
2018-05-26T04:53:19.765Z,8.53
2018-05-26T04:55:49.432Z,8.63
2018-05-26T04:58:19.837Z,9.13
2018-05-26T05:00:48.847Z,8.67
2018-05-26T05:03:20.538Z,9.07
2018-05-26T05:05:49.542Z,8.90
2018-05-26T05:08:18.489Z,9.50
2018-05-26T05:10:47.737Z,9.23
2018-05-26T05:13:16.355Z,9.10
2018-05-26T05:15:45.861Z,11.32
2018-05-26T05:18:14.547Z,10.00
2018-05-26T05:20:43.240Z,9.20
2018-05-26T05:23:11.902Z,9.37
2018-05-26T05:25:43.030Z,9.83
2018-05-26T05:28:11.729Z,9.23
2018-05-26T05:30:40.381Z,11.43
2018-05-26T05:33:09.059Z,9.87
2018-05-26T05:35:37.701Z,11.07
2018-05-26T05:38:06.360Z,11.17
2018-05-26T05:40:35.274Z,9.35
2018-05-26T05:43:03.953Z,12.95
2018-05-26T05:45:32.595Z,12.37
2018-05-26T05:48:01.341Z,11.85
2018-05-26T05:50:29.974Z,11.80
2018-05-26T05:52:58.650Z,13.13
2018-05-26T05:55:27.342Z,13.07
2018-05-26T05:57:56.030Z,12.93
2018-05-26T06:00:24.721Z,13.00
2018-05-26T06:02:53.456Z,12.85
2018-05-26T06:05:22.436Z,13.35
2018-05-26T06:07:51.097Z,13.13
2018-05-26T06:10:19.749Z,13.55
2018-05-26T06:12:49.577Z,15.20
2018-05-26T06:15:18.252Z,14.05
2018-05-26T06:17:47.183Z,13.10
2018-05-26T06:20:15.824Z,13.27
2018-05-26T06:22:44.618Z,13.43
2018-05-26T06:25:13.301Z,13.85
2018-05-26T06:27:43.661Z,13.80
2018-05-26T06:30:12.373Z,13.25
2018-05-26T06:32:44.331Z,14.27
2018-05-26T06:35:12.987Z,13.32
2018-05-26T06:37:42.019Z,13.62
2018-05-26T06:40:10.860Z,12.98
2018-05-26T06:42:40.618Z,11.93
2018-05-26T06:45:09.258Z,12.13
2018-05-26T06:47:38.106Z,13.20
2018-05-26T06:50:08.003Z,12.30
2018-05-26T06:52:42.194Z,13.18
2018-05-26T06:55:10.836Z,12.63
2018-05-26T06:57:41.228Z,14.48
2018-05-26T07:00:10.174Z,12.93
2018-05-26T07:02:46.473Z,13.60
2018-05-26T07:05:15.134Z,12.37
2018-05-26T07:07:46.594Z,13.35
2018-05-26T07:10:18.031Z,13.07
2018-05-26T07:12:46.735Z,13.83
2018-05-26T07:15:18.638Z,13.48
2018-05-26T07:17:49.446Z,14.75
2018-05-26T07:20:18.265Z,14.37
2018-05-26T07:22:46.941Z,12.20
2018-05-26T07:25:15.681Z,12.07
2018-05-26T07:27:49.645Z,12.98
2018-05-26T07:30:19.267Z,12.68
2018-05-26T07:32:47.883Z,12.35
2018-05-26T07:35:16.881Z,12.82
2018-05-26T07:37:46.351Z,11.93
2018-05-26T07:40:15.352Z,12.27
2018-05-26T07:42:45.361Z,12.52
2018-05-26T07:45:14.399Z,13.25
2018-05-26T07:47:43.070Z,13.07
2018-05-26T07:50:11.770Z,14.10
2018-05-26T07:52:40.423Z,13.48
2018-05-26T07:55:09.172Z,11.85
2018-05-26T07:57:37.810Z,12.32
2018-05-26T08:00:06.544Z,13.30
2018-05-26T08:02:35.165Z,11.90
2018-05-26T08:05:03.836Z,11.23
2018-05-26T08:07:32.498Z,10.75
2018-05-26T08:10:03.190Z,11.65
2018-05-26T08:12:32.032Z,10.70
2018-05-26T08:15:00.710Z,10.25
2018-05-26T08:17:29.775Z,12.40
2018-05-26T08:19:58.409Z,10.30
2018-05-26T08:22:27.034Z,9.93
2018-05-26T08:24:55.710Z,10.07
2018-05-26T08:27:24.333Z,8.98
2018-05-26T08:29:53.017Z,9.23
2018-05-26T08:32:22.523Z,9.02
2018-05-26T08:34:51.213Z,9.90
2018-05-26T08:37:19.857Z,10.00
2018-05-26T08:39:48.527Z,9.70
2018-05-26T08:42:17.172Z,9.45
2018-05-26T08:44:46.430Z,8.65
2018-05-26T08:47:15.047Z,9.38
2018-05-26T08:49:52.096Z,8.73
2018-05-26T08:52:21.127Z,8.23
2018-05-26T08:54:50.495Z,8.20
2018-05-26T08:57:20.993Z,8.25
2018-05-26T08:59:50.127Z,8.15
2018-05-26T09:02:19.270Z,8.13
2018-05-26T09:04:49.854Z,8.65
2018-05-26T09:07:19.067Z,8.07
2018-05-26T09:09:48.256Z,8.45
2018-05-26T09:12:17.235Z,7.87
2018-05-26T09:14:46.367Z,7.18
2018-05-26T09:17:15.356Z,5.60
2018-05-26T09:19:45.115Z,6.22
2018-05-26T09:22:15.767Z,6.97
2018-05-26T09:24:44.371Z,6.37
2018-05-26T09:27:13.552Z,5.40
2018-05-26T09:29:42.292Z,6.20
2018-05-26T09:32:12.069Z,6.35
2018-05-26T09:34:40.791Z,6.22
2018-05-26T09:37:10.874Z,5.82
2018-05-26T09:39:42.279Z,7.53
2018-05-26T09:42:10.912Z,6.68
2018-05-26T09:44:39.651Z,6.12
2018-05-26T09:47:08.454Z,6.45
2018-05-26T09:49:45.208Z,5.65
2018-05-26T09:52:54.040Z,4.82
2018-05-26T09:55:30.454Z,4.72
2018-05-26T09:58:01.239Z,4.80
2018-05-26T10:15:42.118Z,5.35
2018-05-26T10:18:10.745Z,5.82
2018-05-26T10:20:40.576Z,5.60
2018-05-26T10:23:09.226Z,5.55
2018-05-26T10:25:37.879Z,5.43
2018-05-26T10:28:11.167Z,5.20
2018-05-26T10:30:42.712Z,5.55
2018-05-26T10:33:11.442Z,5.57
2018-05-26T10:35:40.097Z,5.87
2018-05-26T10:38:09.813Z,5.30
2018-05-26T10:40:42.177Z,5.35
2018-05-26T10:43:11.407Z,5.40
2018-05-26T10:45:40.408Z,5.20
2018-05-26T10:50:56.608Z,4.57
2018-05-26T10:53:25.308Z,4.90
2018-05-26T10:55:54.007Z,4.68
2018-05-26T10:58:22.667Z,4.55
2018-05-26T11:00:52.424Z,5.12
2018-05-26T11:03:24.079Z,4.82
2018-05-26T11:05:52.694Z,5.47
2018-05-26T11:08:21.840Z,4.83
2018-05-26T11:10:55.721Z,4.90
2018-05-26T11:13:25.196Z,5.10
2018-05-26T11:15:54.064Z,5.40
2018-05-26T11:18:22.749Z,5.10
2018-05-26T11:23:42.351Z,4.60
2018-05-26T11:26:14.318Z,4.30
2018-05-26T11:28:42.987Z,4.70
2018-05-26T11:31:11.663Z,4.75
2018-05-26T11:33:40.259Z,4.28
2018-05-26T11:36:09.230Z,3.85
2018-05-26T11:38:40.857Z,4.57
2018-05-26T11:41:09.494Z,4.53
2018-05-26T11:43:38.198Z,4.80
2018-05-26T11:46:06.776Z,4.37
2018-05-26T11:48:35.831Z,3.95
2018-05-26T11:51:04.925Z,4.60
2018-05-26T11:53:33.573Z,4.47
2018-05-26T11:56:02.212Z,4.62
2018-05-26T11:58:31.273Z,4.20
2018-05-26T12:00:59.892Z,4.50
2018-05-26T12:03:31.509Z,4.50
2018-05-26T12:06:00.126Z,4.43
2018-05-26T12:08:28.772Z,4.37
2018-05-26T12:11:01.892Z,4.70
2018-05-26T12:13:30.580Z,5.15
2018-05-26T12:15:59.352Z,5.25
2018-05-26T12:18:27.987Z,4.40
2018-05-26T12:20:58.942Z,4.57
2018-05-26T12:23:27.603Z,4.62
2018-05-26T12:25:56.233Z,4.47
2018-05-26T12:28:24.872Z,5.00
2018-05-26T12:30:53.525Z,4.57
2018-05-26T12:33:22.148Z,5.03
2018-05-26T12:35:50.784Z,5.03
2018-05-26T12:38:19.407Z,4.90
2018-05-26T12:40:48.059Z,4.30
2018-05-26T12:43:16.663Z,4.60
2018-05-26T12:45:45.308Z,4.30
2018-05-26T12:48:13.926Z,4.22
2018-05-26T12:50:42.576Z,4.22
2018-05-26T12:53:11.272Z,4.20
2018-05-26T12:55:39.942Z,4.12
2018-05-26T12:58:08.553Z,4.85
2018-05-26T13:00:37.202Z,4.15
2018-05-26T13:03:05.852Z,4.30
2018-05-26T13:05:34.498Z,4.62
2018-05-26T13:08:03.100Z,4.10
2018-05-26T13:10:31.731Z,4.20
2018-05-26T13:13:00.334Z,4.12
2018-05-26T13:15:28.970Z,4.22
2018-05-26T13:17:57.580Z,4.10
2018-05-26T13:20:26.219Z,4.33
2018-05-26T13:22:54.819Z,4.40
2018-05-26T13:25:23.463Z,4.20
2018-05-26T13:27:52.067Z,3.50
2018-05-26T13:30:20.704Z,3.90
2018-05-26T13:32:49.311Z,3.60
2018-05-26T13:35:17.972Z,3.53
2018-05-26T13:37:46.566Z,3.92
2018-05-26T13:40:15.202Z,3.70
2018-05-26T13:42:43.816Z,3.67
2018-05-26T13:45:12.450Z,3.67
2018-05-26T13:47:41.059Z,4.22
2018-05-26T13:50:09.699Z,4.30
2018-05-26T13:52:38.322Z,3.58
2018-05-26T13:55:06.967Z,3.92
2018-05-26T13:57:35.575Z,3.87
2018-05-26T14:00:04.225Z,3.85
2018-05-26T14:02:32.839Z,3.78
2018-05-26T14:05:01.443Z,3.85
2018-05-26T14:07:30.080Z,3.92
2018-05-26T14:09:58.686Z,3.95
2018-05-26T14:12:27.342Z,3.50
2018-05-26T14:14:55.955Z,3.75
2018-05-26T14:17:24.596Z,3.90
2018-05-26T14:19:54.150Z,3.85
2018-05-26T14:22:22.779Z,4.07
2018-05-26T14:24:51.391Z,3.67
2018-05-26T14:27:20.028Z,4.10
2018-05-26T14:29:48.636Z,3.80
2018-05-26T14:32:19.302Z,4.00
2018-05-26T14:34:49.920Z,3.85
2018-05-26T14:37:18.553Z,3.87
2018-05-26T14:39:47.171Z,3.65
2018-05-26T14:42:16.244Z,3.95
2018-05-26T14:44:44.846Z,3.58
2018-05-26T14:47:13.480Z,3.50
2018-05-26T14:49:42.088Z,3.60
2018-05-26T14:52:10.721Z,3.53
2018-05-26T14:54:39.331Z,3.55
2018-05-26T14:57:07.969Z,3.47
2018-05-26T14:59:36.577Z,3.83
2018-05-26T15:02:05.214Z,3.60
2018-05-26T15:04:33.849Z,3.90
2018-05-26T15:07:02.483Z,3.90
2018-05-26T15:09:31.102Z,3.62
2018-05-26T15:11:59.904Z,3.70
2018-05-26T15:14:28.527Z,3.93
2018-05-26T15:16:57.183Z,3.90
2018-05-26T15:19:25.783Z,3.90
2018-05-26T15:21:54.417Z,3.75
2018-05-26T15:24:23.036Z,3.50
2018-05-26T15:26:51.681Z,3.83
2018-05-26T15:29:20.296Z,4.05
2018-05-26T15:31:48.942Z,3.80
2018-05-26T15:34:17.546Z,3.50
2018-05-26T15:36:46.160Z,3.80
2018-05-26T15:39:14.812Z,3.25
2018-05-26T15:41:43.415Z,4.00
2018-05-26T15:44:12.048Z,3.30
2018-05-26T15:46:40.656Z,3.65
2018-05-26T15:49:09.292Z,3.22
2018-05-26T15:51:37.928Z,3.87
2018-05-26T15:54:06.575Z,3.45
2018-05-26T15:56:35.173Z,3.45
2018-05-26T15:59:03.813Z,2.97
2018-05-26T16:01:32.410Z,3.53
2018-05-26T16:04:01.047Z,3.92
2018-05-26T16:06:29.707Z,3.80
2018-05-26T16:08:58.295Z,4.32
2018-05-26T16:11:26.904Z,3.60
2018-05-26T16:13:55.591Z,3.95
2018-05-26T16:16:24.211Z,3.45
2018-05-26T16:18:52.848Z,3.17
2018-05-26T16:21:21.456Z,3.50
2018-05-26T16:23:50.103Z,3.12
2018-05-26T16:26:18.757Z,3.50
2018-05-26T16:28:47.399Z,3.28
2018-05-26T16:31:16.009Z,3.00
2018-05-26T16:33:44.638Z,3.25
2018-05-26T16:36:13.243Z,3.22
2018-05-26T16:38:41.881Z,3.70
2018-05-26T16:41:10.498Z,3.42
2018-05-26T16:43:39.135Z,3.60
2018-05-26T16:46:07.757Z,3.35
2018-05-26T16:48:36.390Z,3.55
2018-05-26T16:51:04.999Z,3.10
2018-05-26T16:53:33.635Z,3.60
2018-05-26T16:56:02.253Z,3.28
2018-05-26T16:58:30.883Z,5.80
2018-05-26T17:00:59.503Z,3.90
2018-05-26T17:03:28.139Z,3.62
2018-05-26T17:05:56.756Z,3.33
2018-05-26T17:08:25.390Z,3.80
2018-05-26T17:10:54.136Z,3.70
2018-05-26T17:13:22.756Z,3.72
2018-05-26T17:15:51.392Z,3.40
2018-05-26T17:18:20.006Z,3.85
2018-05-26T17:20:48.638Z,4.05
2018-05-26T17:23:17.258Z,3.58
2018-05-26T17:25:45.918Z,3.62
2018-05-26T17:28:14.523Z,3.12
2018-05-26T17:30:43.175Z,3.40
2018-05-26T17:33:11.791Z,3.60
2018-05-26T17:35:40.450Z,3.28
2018-05-26T17:38:09.063Z,3.28
2018-05-26T17:40:37.699Z,3.20
2018-05-26T17:43:06.319Z,3.22
2018-05-26T17:45:34.974Z,3.22
2018-05-26T17:48:03.587Z,3.85
2018-05-26T17:50:32.223Z,3.15
2018-05-26T17:53:00.823Z,3.62
2018-05-26T17:55:30.457Z,3.22
2018-05-26T17:57:59.091Z,3.60
2018-05-26T18:00:27.735Z,3.50
2018-05-26T18:02:56.333Z,3.92
2018-05-26T18:05:25.012Z,4.05
2018-05-26T18:07:53.648Z,3.70
2018-05-26T18:10:22.296Z,4.20
2018-05-26T18:12:50.916Z,4.20
2018-05-26T18:15:19.560Z,4.40
2018-05-26T18:17:48.169Z,4.85
2018-05-26T18:20:16.836Z,4.68
2018-05-26T18:22:45.832Z,4.62
2018-05-26T18:25:14.472Z,4.22
2018-05-26T18:27:43.104Z,4.68
2018-05-26T18:30:11.744Z,3.92
2018-05-26T18:32:40.358Z,4.50
2018-05-26T18:35:08.994Z,3.60
2018-05-26T18:37:39.733Z,4.45
2018-05-26T18:40:10.699Z,4.30
2018-05-26T18:42:41.336Z,3.95
2018-05-26T18:45:11.244Z,4.03
2018-05-26T18:47:40.032Z,4.30
2018-05-26T18:50:08.660Z,4.40
2018-05-26T18:52:37.318Z,4.57
2018-05-26T18:55:08.312Z,5.00
2018-05-26T18:57:36.955Z,4.95
2018-05-26T19:00:05.588Z,4.62
2018-05-26T19:02:34.241Z,4.65
2018-05-26T19:05:02.887Z,4.80
2018-05-26T19:07:31.532Z,4.80
2018-05-26T19:10:00.154Z,4.65
2018-05-26T19:12:28.936Z,5.32
2018-05-26T19:14:57.576Z,4.80
2018-05-26T19:17:26.231Z,4.80
2018-05-26T19:19:54.871Z,5.07
2018-05-26T19:22:23.525Z,4.60
2018-05-26T19:24:54.072Z,4.57
2018-05-26T19:27:22.730Z,4.60
2018-05-26T19:29:53.713Z,4.57
2018-05-26T19:32:22.395Z,4.55
2018-05-26T19:34:51.019Z,4.43
2018-05-26T19:37:19.656Z,4.57
2018-05-26T19:39:48.302Z,4.85
2018-05-26T19:42:16.960Z,4.93
2018-05-26T19:44:45.607Z,4.87
2018-05-26T19:47:14.293Z,4.65
2018-05-26T19:49:42.903Z,4.82
2018-05-26T19:52:11.556Z,4.95
2018-05-26T19:54:40.176Z,4.95
2018-05-26T19:57:08.896Z,4.50
2018-05-26T19:59:40.359Z,4.95
2018-05-26T20:02:11.081Z,4.32
2018-05-26T20:04:42.220Z,5.00
2018-05-26T20:07:12.960Z,4.40
2018-05-26T20:09:41.637Z,8.18
2018-05-26T20:12:10.287Z,4.85
2018-05-26T20:14:39.834Z,4.90
2018-05-26T20:17:08.507Z,4.72
2018-05-26T20:19:39.453Z,4.37
2018-05-26T20:22:08.088Z,5.00
2018-05-26T20:27:26.524Z,4.90
2018-05-26T20:29:55.188Z,4.43
2018-05-26T20:32:23.851Z,4.62
2018-05-26T20:35:00.232Z,4.60
2018-05-26T20:37:36.405Z,4.85
2018-05-26T20:40:05.522Z,4.75
2018-05-26T20:42:51.632Z,4.78
2018-05-26T20:45:22.723Z,4.85
2018-05-26T20:47:53.719Z,5.03
2018-05-26T20:50:23.100Z,5.20
2018-05-26T20:52:53.602Z,5.22
2018-05-26T20:58:09.892Z,6.12
2018-05-26T21:00:41.039Z,5.05
2018-05-26T21:03:10.065Z,5.68
2018-05-26T21:05:39.799Z,6.85
2018-05-26T21:08:16.366Z,5.55
2018-05-26T21:10:45.050Z,5.40
2018-05-26T21:13:21.725Z,4.87
2018-05-26T21:15:50.361Z,5.40
2018-05-26T21:18:19.031Z,5.65
2018-05-26T21:20:49.649Z,5.32
2018-05-26T21:23:18.700Z,6.75
2018-05-26T21:25:47.723Z,7.12
2018-05-26T21:28:16.416Z,6.45
2018-05-26T21:30:45.976Z,5.28
2018-05-26T21:33:15.207Z,5.35
2018-05-26T21:35:46.060Z,5.53
2018-05-26T21:38:18.075Z,5.53
2018-05-26T21:40:46.753Z,6.37
2018-05-26T21:43:15.992Z,5.37
2018-05-26T21:45:45.028Z,6.00
2018-05-26T21:48:13.648Z,5.75
2018-05-26T21:50:42.338Z,5.28
2018-05-26T21:53:10.952Z,5.78
2018-05-26T21:55:42.829Z,5.87
2018-05-26T21:58:16.145Z,5.28
2018-05-26T22:00:49.557Z,5.65
2018-05-26T22:03:20.550Z,5.95
2018-05-26T22:05:49.275Z,5.68
2018-05-26T22:08:17.866Z,5.95
2018-05-26T22:10:48.665Z,5.95
2018-05-26T22:13:17.303Z,6.15
2018-05-26T22:15:45.975Z,6.37
2018-05-26T22:18:14.648Z,6.40
2018-05-26T22:20:43.324Z,5.85
2018-05-26T22:23:11.948Z,5.82
2018-05-26T22:25:42.290Z,5.68
2018-05-26T22:28:12.279Z,6.03
2018-05-26T22:30:44.434Z,6.90
2018-05-26T22:33:14.801Z,6.47
2018-05-26T22:35:43.912Z,6.68
2018-05-26T22:38:14.919Z,7.12
2018-05-26T22:40:45.063Z,6.40
2018-05-26T22:43:18.677Z,6.57
2018-05-26T22:45:49.442Z,7.80
2018-05-26T22:48:19.956Z,7.62
2018-05-26T22:50:56.101Z,12.93
2018-05-26T22:53:25.841Z,8.68
2018-05-26T22:55:56.768Z,8.18
2018-05-26T22:58:30.232Z,7.90
2018-05-26T23:01:02.760Z,9.37
2018-05-26T23:03:40.167Z,8.30
2018-05-26T23:06:09.676Z,9.25
2018-05-26T23:08:38.752Z,7.93
2018-05-26T23:11:07.906Z,6.95
2018-05-26T23:13:37.040Z,7.28
2018-05-26T23:16:06.214Z,6.50
2018-05-26T23:18:35.401Z,6.10
2018-05-26T23:21:04.430Z,6.93
2018-05-26T23:23:33.410Z,6.60
2018-05-26T23:26:02.199Z,6.47
2018-05-26T23:28:39.887Z,7.03
2018-05-26T23:31:08.824Z,6.75
2018-05-26T23:33:40.546Z,7.10
2018-05-26T23:36:10.568Z,6.37
2018-05-26T23:38:40.018Z,6.50
2018-05-26T23:41:08.965Z,6.47
2018-05-26T23:43:37.902Z,6.20
2018-05-26T23:46:09.417Z,7.45
2018-05-26T23:48:39.571Z,7.23
2018-05-26T23:51:08.755Z,7.15
2018-05-26T23:53:37.597Z,7.20
2018-05-26T23:56:06.774Z,7.30
2018-05-26T23:58:35.274Z,6.30
